Time;durP1;ratioP1;P1;durP2;ratioP2;P2;SDS_P1;SDS_P2;PMS_P1;PMS_P2;Temp;Humidity;BMP_temperature;BMP_pressure;BME280_temperature;BME280_humidity;BME280_pressure;Samples;Min_cycle;Max_cycle;Signal;HPM_P1;HPM_P2
2022/11/26 00:02:24;;;;;;;22.00;11.23;;;5.20;99.90;;;;;;5118709;28;20202;-79
2022/11/26 00:04:53;;;;;;;18.53;10.80;;;5.20;99.90;;;;;;5119059;28;20320;-78
2022/11/26 00:07:25;;;;;;;20.00;10.80;;;5.20;99.90;;;;;;5128978;27;20206;-79
2022/11/26 00:09:55;;;;;;;14.53;10.50;;;5.20;99.90;;;;;;5122666;27;20297;-80
2022/11/26 00:12:26;;;;;;;20.90;10.53;;;5.30;99.90;;;;;;5118929;28;20224;-77
2022/11/26 00:14:55;;;;;;;18.77;10.97;;;5.30;99.90;;;;;;5119117;28;20186;-78
2022/11/26 00:17:23;;;;;;;18.30;9.90;;;5.30;99.90;;;;;;5129046;27;20202;-79
2022/11/26 00:19:51;;;;;;;19.10;10.13;;;5.30;99.90;;;;;;5137063;27;20212;-79
2022/11/26 00:22:25;;;;;;;17.83;9.67;;;5.30;99.90;;;;;;5136177;27;20212;-79
2022/11/26 00:24:54;;;;;;;15.97;9.83;;;5.30;99.90;;;;;;5132614;27;20240;-78
2022/11/26 00:27:25;;;;;;;16.00;8.97;;;5.30;99.90;;;;;;5115771;28;20265;-77
2022/11/26 00:29:54;;;;;;;17.57;9.33;;;5.30;99.90;;;;;;5125917;28;20194;-75
2022/11/26 00:32:23;;;;;;;12.70;8.30;;;5.30;99.90;;;;;;5126382;28;20225;-74
2022/11/26 00:34:52;;;;;;;16.20;8.90;;;5.40;99.90;;;;;;5115549;28;20206;-76
2022/11/26 00:37:23;;;;;;;15.63;8.80;;;5.40;99.90;;;;;;5115463;28;20213;-78
2022/11/26 00:39:52;;;;;;;13.53;8.53;;;5.40;99.90;;;;;;5115365;28;20186;-79
2022/11/26 00:42:20;;;;;;;14.50;8.63;;;5.40;99.90;;;;;;5114515;27;20284;-80
2022/11/26 00:44:50;;;;;;;16.87;9.30;;;5.40;99.90;;;;;;5115463;28;20225;-77
2022/11/26 00:47:18;;;;;;;15.37;9.00;;;5.50;99.90;;;;;;5115454;28;20324;-78
2022/11/26 00:49:46;;;;;;;15.47;8.53;;;5.40;99.90;;;;;;5115065;28;20206;-79
2022/11/26 00:52:24;;;;;;;17.07;8.53;;;5.40;99.90;;;;;;5132317;27;20295;-78
2022/11/26 00:54:52;;;;;;;20.03;8.23;;;5.40;99.90;;;;;;5135671;27;20264;-78
2022/11/26 00:57:20;;;;;;;14.47;8.40;;;5.40;99.90;;;;;;5133144;27;20206;-78
2022/11/26 00:59:50;;;;;;;13.70;7.83;;;5.40;99.90;;;;;;5115175;27;20317;-79
2022/11/26 01:02:18;;;;;;;14.23;7.53;;;5.40;99.90;;;;;;5114071;27;20210;-80
2022/11/26 01:04:46;;;;;;;11.43;7.57;;;5.40;99.90;;;;;;5114673;28;20234;-80
2022/11/26 01:07:14;;;;;;;15.53;7.97;;;5.40;99.90;;;;;;5115079;28;20217;-78
2022/11/26 01:09:44;;;;;;;12.67;7.63;;;5.50;99.90;;;;;;5115301;27;20210;-80
2022/11/26 01:12:14;;;;;;;12.60;7.13;;;5.50;99.90;;;;;;5135252;27;20254;-78
2022/11/26 01:14:42;;;;;;;11.93;7.10;;;5.50;99.90;;;;;;5135347;27;20212;-77
2022/11/26 01:17:12;;;;;;;14.10;7.27;;;5.50;99.90;;;;;;5114773;28;20209;-78
2022/11/26 01:19:40;;;;;;;14.13;7.53;;;5.50;99.90;;;;;;5114524;27;20664;-77
2022/11/26 01:22:18;;;;;;;11.87;7.23;;;5.50;99.90;;;;;;5114353;28;20669;-78
2022/11/26 01:24:48;;;;;;;12.93;7.10;;;5.50;99.90;;;;;;5114554;27;20235;-75
2022/11/26 01:27:17;;;;;;;13.83;7.00;;;5.50;99.90;;;;;;5114554;28;20208;-74
2022/11/26 01:29:45;;;;;;;12.30;6.87;;;5.50;99.90;;;;;;5116386;28;20206;-76
2022/11/26 01:32:14;;;;;;;14.40;7.20;;;5.50;99.90;;;;;;5115740;28;20202;-75
2022/11/26 01:34:42;;;;;;;12.27;7.03;;;5.50;99.90;;;;;;5115583;27;20202;-77
2022/11/26 01:37:14;;;;;;;11.77;6.87;;;5.50;99.90;;;;;;5114665;28;20668;-79
2022/11/26 01:39:42;;;;;;;11.57;6.50;;;5.50;99.90;;;;;;5114346;28;20576;-81
2022/11/26 01:42:25;;;;;;;11.47;6.83;;;5.50;99.90;;;;;;5113792;28;20715;-76
2022/11/26 01:44:53;;;;;;;10.67;6.53;;;5.50;99.90;;;;;;5128783;27;20216;-78
2022/11/26 01:47:25;;;;;;;14.33;7.27;;;5.50;99.90;;;;;;5121368;27;20210;-78
2022/11/26 01:50:31;;;;;;;14.03;6.90;;;5.50;99.90;;;;;;5116663;28;20189;-77
2022/11/26 01:53:03;;;;;;;12.10;7.13;;;5.50;99.90;;;;;;5121731;28;20228;-76
2022/11/26 01:55:36;;;;;;;14.07;7.17;;;5.50;99.90;;;;;;5125510;27;20236;-77
2022/11/26 01:58:07;;;;;;;13.97;6.37;;;5.50;99.90;;;;;;5131428;28;20213;-76
2022/11/26 02:00:35;;;;;;;11.83;6.40;;;5.40;99.90;;;;;;5115228;28;20190;-80
2022/11/26 02:03:05;;;;;;;10.27;6.53;;;5.40;99.90;;;;;;5113722;28;20679;-77
2022/11/26 02:05:40;;;;;;;13.53;6.40;;;5.40;99.90;;;;;;5114127;28;20229;-78
2022/11/26 02:08:09;;;;;;;12.33;6.47;;;5.40;99.90;;;;;;5113928;28;20214;-80
2022/11/26 02:10:38;;;;;;;13.90;6.63;;;5.40;99.90;;;;;;5114208;28;20214;-81
2022/11/26 02:13:06;;;;;;;12.73;6.27;;;5.30;99.90;;;;;;5114845;27;20241;-80
2022/11/26 02:15:43;;;;;;;12.07;6.50;;;5.40;99.90;;;;;;5134046;27;20209;-80
2022/11/26 02:18:16;;;;;;;11.93;5.83;;;5.40;99.90;;;;;;5134397;27;20207;-79
2022/11/26 02:20:53;;;;;;;12.33;6.27;;;5.40;99.90;;;;;;5134412;27;20190;-79
2022/11/26 02:23:54;;;;;;;16.07;6.40;;;5.40;99.90;;;;;;5123867;27;20206;-79
2022/11/26 02:26:47;;;;;;;10.93;5.57;;;5.40;99.90;;;;;;5113386;28;20616;-80
2022/11/26 02:29:23;;;;;;;12.00;5.77;;;5.40;99.90;;;;;;5113444;28;20238;-81
2022/11/26 02:31:58;;;;;;;12.67;5.80;;;5.40;99.90;;;;;;5113053;27;20228;-81
2022/11/26 02:34:33;;;;;;;9.87;5.70;;;5.30;99.90;;;;;;5113061;28;20515;-80
2022/11/26 02:37:09;;;;;;;11.17;5.97;;;5.40;99.90;;;;;;5113499;28;20684;-81
2022/11/26 02:39:37;;;;;;;14.20;5.63;;;5.40;99.90;;;;;;5126738;27;20546;-79
2022/11/26 02:42:24;;;;;;;14.40;6.00;;;5.30;99.90;;;;;;5133855;27;20206;-79
2022/11/26 02:44:55;;;;;;;10.23;5.33;;;5.40;99.90;;;;;;5133553;27;20186;-80
2022/11/26 02:47:27;;;;;;;12.47;5.70;;;5.40;99.90;;;;;;5124753;27;20206;-81
2022/11/26 02:49:59;;;;;;;12.00;5.20;;;5.30;99.90;;;;;;5113451;27;20206;-79
2022/11/26 02:52:28;;;;;;;11.13;5.00;;;5.40;99.90;;;;;;5113579;28;20221;-80
2022/11/26 02:54:57;;;;;;;9.93;4.63;;;5.30;99.90;;;;;;5113745;28;20209;-79
2022/11/26 02:57:30;;;;;;;10.53;5.63;;;5.30;99.90;;;;;;5113215;28;20205;-80
2022/11/26 02:59:58;;;;;;;11.07;5.00;;;5.30;99.90;;;;;;5131010;27;20659;-80
2022/11/26 03:02:35;;;;;;;11.63;5.27;;;5.30;99.90;;;;;;5133640;27;20224;-79
2022/11/26 03:05:05;;;;;;;11.70;5.30;;;5.30;99.90;;;;;;5133844;27;20193;-79
2022/11/26 03:07:35;;;;;;;9.27;4.90;;;5.30;99.90;;;;;;5125901;28;20206;-80
2022/11/26 03:10:05;;;;;;;9.07;5.00;;;5.30;99.90;;;;;;5113728;28;20216;-79
2022/11/26 03:12:33;;;;;;;9.37;5.40;;;5.30;99.90;;;;;;5119312;28;20651;-78
2022/11/26 03:15:01;;;;;;;11.20;5.63;;;5.30;99.90;;;;;;5131639;28;20212;-80
2022/11/26 03:17:31;;;;;;;11.30;4.93;;;5.30;99.90;;;;;;5113305;28;20555;-76
2022/11/26 03:19:59;;;;;;;11.43;5.20;;;5.30;99.90;;;;;;5113051;28;20208;-79
2022/11/26 03:22:28;;;;;;;10.90;4.97;;;5.30;99.90;;;;;;5112874;28;20690;-79
2022/11/26 03:24:56;;;;;;;10.33;5.53;;;5.30;99.90;;;;;;5113322;28;20209;-81
2022/11/26 03:27:24;;;;;;;10.53;4.90;;;5.30;99.90;;;;;;5112850;28;20226;-80
2022/11/26 03:29:52;;;;;;;10.60;5.00;;;5.30;99.90;;;;;;5113140;28;20210;-80
2022/11/26 03:32:20;;;;;;;10.93;5.03;;;5.20;99.90;;;;;;5112922;28;20210;-81
2022/11/26 03:34:50;;;;;;;10.90;4.90;;;5.20;99.90;;;;;;5113004;28;20213;-79
2022/11/26 03:37:18;;;;;;;14.10;4.90;;;5.20;99.90;;;;;;5113205;28;20204;-81
2022/11/26 03:39:46;;;;;;;12.47;5.00;;;5.20;99.90;;;;;;5113322;28;20214;-79
2022/11/26 03:42:14;;;;;;;10.03;4.90;;;5.20;99.90;;;;;;5112690;28;20202;-79
2022/11/26 03:44:42;;;;;;;9.93;5.07;;;5.30;99.90;;;;;;5112878;28;20206;-80
2022/11/26 03:47:10;;;;;;;9.87;4.70;;;5.20;99.90;;;;;;5113011;28;20252;-81
2022/11/26 03:49:38;;;;;;;9.03;4.83;;;5.20;99.90;;;;;;5113090;28;20214;-80
2022/11/26 03:52:08;;;;;;;11.77;5.00;;;5.10;99.90;;;;;;5112403;28;20210;-80
2022/11/26 03:54:36;;;;;;;13.33;5.03;;;5.10;99.90;;;;;;5112794;28;20187;-80
2022/11/26 03:57:04;;;;;;;11.10;5.27;;;5.10;99.90;;;;;;5122615;27;20247;-79
2022/11/26 03:59:33;;;;;;;9.30;5.30;;;5.20;99.90;;;;;;5137135;27;20212;-80
2022/11/26 04:02:01;;;;;;;7.77;4.80;;;5.10;99.90;;;;;;5136827;27;20212;-80
2022/11/26 04:04:29;;;;;;;8.40;5.17;;;5.10;99.90;;;;;;5137141;27;20236;-80
2022/11/26 04:06:57;;;;;;;10.60;5.47;;;5.10;99.90;;;;;;5118435;27;20714;-79
2022/11/26 04:09:27;;;;;;;10.77;5.50;;;5.10;99.90;;;;;;5118031;28;20210;-77
2022/11/26 04:11:56;;;;;;;15.37;6.13;;;5.10;99.90;;;;;;5129989;27;20209;-78
2022/11/26 04:14:24;;;;;;;10.13;5.27;;;5.10;99.90;;;;;;5123261;27;20217;-80
2022/11/26 04:16:52;;;;;;;8.77;5.40;;;5.10;99.90;;;;;;5117537;28;20294;-80
2022/11/26 04:19:20;;;;;;;10.20;5.53;;;5.10;99.90;;;;;;5117500;28;20202;-78
2022/11/26 04:21:48;;;;;;;12.50;5.67;;;5.20;99.90;;;;;;5117984;27;20547;-80
2022/11/26 04:24:16;;;;;;;13.27;5.67;;;5.20;99.90;;;;;;5116597;28;20300;-79
2022/11/26 04:26:46;;;;;;;10.83;5.33;;;5.20;99.90;;;;;;5117145;28;20311;-80
2022/11/26 04:29:14;;;;;;;10.93;6.07;;;5.20;99.90;;;;;;5116925;28;20229;-78
2022/11/26 04:31:42;;;;;;;10.63;5.70;;;5.20;99.90;;;;;;5125131;27;20216;-78
2022/11/26 04:34:10;;;;;;;10.10;5.43;;;5.20;99.90;;;;;;5136980;27;20210;-81
2022/11/26 04:36:39;;;;;;;13.67;5.90;;;5.20;99.90;;;;;;5136535;27;20724;-81
2022/11/26 04:39:07;;;;;;;12.07;5.70;;;5.30;99.90;;;;;;5130883;27;20210;-79
2022/11/26 04:41:35;;;;;;;11.83;6.17;;;5.20;99.90;;;;;;5115842;28;20235;-78
2022/11/26 04:44:05;;;;;;;10.37;5.37;;;5.20;99.90;;;;;;5115273;28;20198;-79
2022/11/26 04:46:33;;;;;;;12.33;5.93;;;5.30;99.90;;;;;;5115512;28;20224;-77
2022/11/26 04:49:02;;;;;;;10.20;5.93;;;5.30;99.90;;;;;;5115696;28;20241;-79
2022/11/26 04:51:30;;;;;;;12.60;6.43;;;5.30;99.90;;;;;;5116012;27;20203;-77
2022/11/26 04:53:58;;;;;;;13.10;5.63;;;5.30;99.90;;;;;;5135870;27;20655;-79
2022/11/26 04:56:35;;;;;;;12.83;5.87;;;5.30;99.90;;;;;;5131225;27;20208;-76
2022/11/26 04:59:05;;;;;;;12.13;6.47;;;5.40;99.90;;;;;;5117421;28;20293;-78
2022/11/26 05:01:33;;;;;;;14.50;6.37;;;5.30;99.90;;;;;;5115382;28;20210;-75
2022/11/26 05:04:01;;;;;;;13.93;6.07;;;5.40;99.90;;;;;;5131811;27;20189;-77
2022/11/26 05:06:29;;;;;;;11.00;6.30;;;5.40;99.90;;;;;;5149586;27;20798;-81
2022/11/26 05:08:57;;;;;;;10.33;6.07;;;5.40;99.90;;;;;;5136849;27;20213;-78
2022/11/26 05:11:25;;;;;;;12.03;5.87;;;5.40;99.90;;;;;;5145561;27;20543;-79
2022/11/26 05:13:53;;;;;;;14.07;6.40;;;5.40;99.90;;;;;;5123837;27;20206;-79
2022/11/26 05:16:22;;;;;;;10.47;6.13;;;5.40;99.90;;;;;;5115600;28;20217;-80
2022/11/26 05:18:51;;;;;;;12.20;5.77;;;5.40;99.90;;;;;;5115361;28;20291;-78
2022/11/26 05:21:19;;;;;;;11.87;6.30;;;5.40;99.90;;;;;;5124482;27;20220;-80
2022/11/26 05:23:47;;;;;;;10.87;6.03;;;5.40;99.90;;;;;;5116479;27;20206;-79
2022/11/26 05:26:15;;;;;;;10.30;6.13;;;5.40;99.90;;;;;;5114996;28;20202;-81
2022/11/26 05:28:43;;;;;;;10.73;6.27;;;5.40;99.90;;;;;;5115025;28;20231;-78
2022/11/26 05:31:11;;;;;;;12.53;6.70;;;5.40;99.90;;;;;;5116642;27;20206;-80
2022/11/26 05:33:41;;;;;;;11.90;6.13;;;5.40;99.90;;;;;;5134597;27;20284;-80
2022/11/26 05:36:09;;;;;;;11.53;6.50;;;5.30;99.90;;;;;;5136350;27;20201;-80
2022/11/26 05:38:37;;;;;;;15.80;7.00;;;5.30;99.90;;;;;;5142615;27;20201;-80
2022/11/26 05:41:05;;;;;;;11.83;6.63;;;5.30;99.90;;;;;;5128969;27;20206;-79
2022/11/26 05:43:33;;;;;;;12.63;6.60;;;5.30;99.90;;;;;;5117944;28;20216;-74
2022/11/26 05:46:04;;;;;;;12.60;6.70;;;5.30;99.90;;;;;;5127668;28;20224;-76
2022/11/26 05:48:33;;;;;;;14.13;7.07;;;5.30;99.90;;;;;;5124881;27;20253;-80
2022/11/26 05:51:03;;;;;;;12.13;7.00;;;5.30;99.90;;;;;;5114648;28;20203;-80
2022/11/26 05:53:31;;;;;;;14.53;7.17;;;5.30;99.90;;;;;;5113672;28;20241;-80
2022/11/26 05:55:59;;;;;;;11.90;6.77;;;5.30;99.90;;;;;;5114360;27;20206;-81
2022/11/26 05:58:27;;;;;;;15.33;7.00;;;5.20;99.90;;;;;;5114298;28;20202;-80
2022/11/26 06:00:55;;;;;;;12.90;7.37;;;5.20;99.90;;;;;;5114274;28;20216;-80
2022/11/26 06:03:23;;;;;;;17.40;7.60;;;5.20;99.90;;;;;;5112954;28;20206;-80
2022/11/26 06:05:52;;;;;;;14.00;7.23;;;5.30;99.90;;;;;;5114046;27;20756;-79
2022/11/26 06:08:21;;;;;;;14.73;7.30;;;5.30;99.90;;;;;;5119162;27;20699;-81
2022/11/26 06:10:49;;;;;;;13.00;6.90;;;5.30;99.90;;;;;;5134689;27;20212;-80
2022/11/26 06:13:17;;;;;;;10.63;6.87;;;5.30;99.90;;;;;;5126920;27;20214;-79
2022/11/26 06:15:45;;;;;;;13.10;6.93;;;5.30;99.90;;;;;;5110164;28;20202;-80
2022/11/26 06:18:13;;;;;;;14.73;7.30;;;5.30;99.90;;;;;;5113196;28;20544;-78
2022/11/26 06:20:41;;;;;;;14.67;7.10;;;5.30;99.90;;;;;;5114044;28;20280;-80
2022/11/26 06:23:10;;;;;;;14.67;7.70;;;5.30;99.90;;;;;;5114184;28;20215;-81
2022/11/26 06:25:41;;;;;;;11.80;7.77;;;5.30;99.90;;;;;;5113842;28;20335;-79
2022/11/26 06:28:10;;;;;;;15.47;7.80;;;5.30;99.90;;;;;;5114049;28;20304;-80
2022/11/26 06:30:38;;;;;;;12.20;7.60;;;5.40;99.90;;;;;;5113991;27;20236;-79
2022/11/26 06:33:06;;;;;;;15.17;7.77;;;5.30;99.90;;;;;;5114283;28;20214;-78
2022/11/26 06:35:34;;;;;;;13.60;8.07;;;5.40;99.90;;;;;;5114323;28;20221;-80
2022/11/26 06:38:03;;;;;;;16.67;8.47;;;5.30;99.90;;;;;;5114130;28;20684;-76
2022/11/26 06:40:31;;;;;;;14.30;7.80;;;5.30;99.90;;;;;;5122335;27;20644;-75
2022/11/26 06:43:00;;;;;;;13.63;8.00;;;5.30;99.90;;;;;;5120091;27;20297;-77
2022/11/26 06:45:28;;;;;;;16.83;7.70;;;5.30;99.90;;;;;;5134383;27;20232;-79
2022/11/26 06:47:56;;;;;;;13.63;7.83;;;5.30;99.90;;;;;;5134033;27;20268;-81
2022/11/26 06:50:25;;;;;;;15.63;7.60;;;5.40;99.90;;;;;;5114509;28;20221;-80
2022/11/26 06:52:54;;;;;;;12.00;7.17;;;5.30;99.90;;;;;;5113175;28;20229;-79
2022/11/26 06:55:23;;;;;;;13.17;7.33;;;5.40;99.90;;;;;;5114151;28;20296;-79
2022/11/26 06:57:51;;;;;;;13.67;7.73;;;5.30;99.90;;;;;;5118296;27;20199;-78
2022/11/26 07:00:22;;;;;;;14.23;7.63;;;5.40;99.90;;;;;;5114587;28;20195;-79
2022/11/26 07:02:51;;;;;;;13.03;7.50;;;5.40;99.90;;;;;;5113856;28;20321;-78
2022/11/26 07:05:19;;;;;;;16.60;7.60;;;5.30;99.90;;;;;;5112544;28;20206;-79
2022/11/26 07:07:47;;;;;;;11.63;7.47;;;5.40;99.90;;;;;;5133669;27;20225;-79
2022/11/26 07:10:15;;;;;;;12.03;7.47;;;5.50;99.90;;;;;;5133449;28;20201;-77
2022/11/26 07:12:43;;;;;;;19.00;7.73;;;5.40;99.90;;;;;;5133313;28;20198;-81
2022/11/26 07:15:12;;;;;;;18.93;7.67;;;5.40;99.90;;;;;;5117801;28;20202;-81
2022/11/26 07:17:41;;;;;;;14.67;7.73;;;5.40;99.90;;;;;;5113055;28;20237;-80
2022/11/26 07:20:10;;;;;;;17.50;7.73;;;5.40;99.90;;;;;;5113354;28;20206;-79
2022/11/26 07:22:38;;;;;;;12.43;7.43;;;5.40;99.90;;;;;;5112707;28;20206;-79
2022/11/26 07:25:06;;;;;;;14.30;7.10;;;5.40;99.90;;;;;;5123949;28;20216;-81
2022/11/26 07:27:39;;;;;;;13.33;7.40;;;5.40;99.90;;;;;;5133372;28;20587;-80
2022/11/26 07:30:08;;;;;;;14.57;7.60;;;5.40;99.90;;;;;;5135669;27;20232;-78
2022/11/26 07:32:36;;;;;;;13.40;6.93;;;5.50;99.90;;;;;;5125904;27;20212;-81
2022/11/26 07:35:07;;;;;;;13.07;7.20;;;5.50;99.90;;;;;;5121977;27;20217;-80
2022/11/26 07:37:35;;;;;;;16.53;7.37;;;5.50;99.90;;;;;;5123875;27;20286;-78
2022/11/26 07:40:03;;;;;;;12.70;7.63;;;5.50;99.90;;;;;;5132138;27;20249;-78
2022/11/26 07:42:32;;;;;;;13.10;8.23;;;5.50;99.90;;;;;;5134751;27;20211;-80
2022/11/26 07:45:00;;;;;;;13.17;7.43;;;5.60;99.90;;;;;;5116631;28;20229;-77
2022/11/26 07:47:28;;;;;;;13.07;7.27;;;5.60;99.90;;;;;;5116600;27;20214;-79
2022/11/26 07:49:57;;;;;;;11.03;7.03;;;5.50;99.90;;;;;;5116255;28;20206;-77
2022/11/26 07:52:27;;;;;;;11.30;6.90;;;5.50;99.90;;;;;;5115997;28;20208;-79
2022/11/26 07:54:55;;;;;;;9.60;6.47;;;5.50;99.90;;;;;;5120030;27;20221;-79
2022/11/26 07:57:24;;;;;;;13.47;6.60;;;5.50;99.90;;;;;;5125770;27;20573;-81
2022/11/26 07:59:52;;;;;;;20.23;10.30;;;5.40;99.90;;;;;;5125298;27;20211;-81
2022/11/26 08:02:20;;;;;;;14.90;9.20;;;5.40;99.90;;;;;;5130897;27;20752;-81
2022/11/26 08:04:48;;;;;;;16.43;11.53;;;5.40;99.90;;;;;;5116546;27;20209;-80
2022/11/26 08:07:16;;;;;;;14.57;8.30;;;5.40;99.90;;;;;;5137529;27;20217;-81
2022/11/26 08:09:55;;;;;;;13.83;6.93;;;5.40;99.90;;;;;;5137217;27;20235;-80
2022/11/26 08:12:24;;;;;;;12.87;6.97;;;5.50;99.90;;;;;;5126093;27;20209;-79
2022/11/26 08:14:52;;;;;;;11.07;5.30;;;5.40;99.90;;;;;;5117688;28;20217;-79
2022/11/26 08:17:20;;;;;;;13.20;6.13;;;5.40;99.90;;;;;;5115913;28;20214;-77
2022/11/26 08:19:48;;;;;;;10.47;5.53;;;5.30;99.90;;;;;;5115508;28;20667;-75
2022/11/26 08:22:16;;;;;;;10.03;5.40;;;5.30;99.90;;;;;;5115102;27;20245;-77
2022/11/26 08:24:45;;;;;;;11.93;6.03;;;5.30;99.90;;;;;;5116071;27;20237;-75
2022/11/26 08:27:14;;;;;;;10.03;6.20;;;5.30;99.90;;;;;;5135657;27;20209;-74
2022/11/26 08:29:42;;;;;;;12.13;6.90;;;5.40;99.90;;;;;;5134096;27;20584;-75
2022/11/26 08:32:10;;;;;;;12.13;6.70;;;5.50;99.90;;;;;;5138597;27;20211;-75
2022/11/26 08:34:39;;;;;;;12.07;6.33;;;5.40;99.90;;;;;;5154554;27;20206;-75
2022/11/26 08:37:08;;;;;;;10.37;6.10;;;5.50;99.90;;;;;;5140028;27;20713;-74
2022/11/26 08:39:36;;;;;;;9.47;6.13;;;5.50;99.90;;;;;;5128636;27;20214;-74
2022/11/26 08:42:04;;;;;;;12.40;6.57;;;5.50;99.90;;;;;;5114510;28;20303;-79
2022/11/26 08:44:33;;;;;;;12.33;6.20;;;5.70;99.90;;;;;;5116368;28;20225;-79
2022/11/26 08:47:01;;;;;;;9.17;5.20;;;5.80;99.90;;;;;;5115449;28;20209;-81
2022/11/26 08:49:30;;;;;;;9.10;4.93;;;5.90;99.90;;;;;;5115368;28;20217;-78
2022/11/26 08:51:58;;;;;;;8.37;4.70;;;6.30;99.90;;;;;;5115023;28;20222;-81
2022/11/26 08:54:26;;;;;;;5.37;3.87;;;6.60;99.90;;;;;;5127633;27;20206;-78
2022/11/26 08:56:55;;;;;;;8.67;4.30;;;6.80;99.90;;;;;;5116076;27;20221;-81
2022/11/26 08:59:24;;;;;;;6.43;3.90;;;7.10;99.90;;;;;;5137387;27;20202;-75
2022/11/26 09:01:54;;;;;;;7.67;4.60;;;7.10;99.90;;;;;;5132390;27;20206;-74
2022/11/26 09:04:22;;;;;;;8.73;4.70;;;7.00;99.90;;;;;;5135005;27;20204;-79
2022/11/26 09:06:50;;;;;;;9.47;4.90;;;7.00;99.90;;;;;;5132238;27;20300;-80
2022/11/26 09:09:18;;;;;;;9.13;5.00;;;7.10;99.90;;;;;;5134529;27;20232;-81
2022/11/26 09:11:48;;;;;;;9.37;4.70;;;7.20;99.90;;;;;;5114210;27;20194;-76
2022/11/26 09:14:19;;;;;;;8.90;4.30;;;7.20;99.90;;;;;;5118051;27;20254;-80
2022/11/26 09:16:47;;;;;;;9.47;4.90;;;7.10;99.90;;;;;;5133774;27;20205;-81
2022/11/26 09:19:17;;;;;;;8.90;5.17;;;6.90;99.90;;;;;;5134951;27;20236;-78
2022/11/26 09:21:46;;;;;;;8.47;4.97;;;6.80;99.90;;;;;;5126385;27;20206;-79
2022/11/26 09:24:15;;;;;;;10.53;5.27;;;6.80;99.90;;;;;;5114171;28;20281;-81
2022/11/26 09:26:44;;;;;;;10.37;5.00;;;6.80;99.90;;;;;;5116764;28;20209;-75
2022/11/26 09:29:13;;;;;;;10.87;5.40;;;6.70;99.90;;;;;;5116078;28;20257;-79
2022/11/26 09:31:43;;;;;;;10.37;5.50;;;6.70;99.90;;;;;;5117958;27;20543;-77
2022/11/26 09:34:32;;;;;;;10.60;5.50;;;6.60;99.90;;;;;;5113908;28;20217;-75
2022/11/26 09:37:04;;;;;;;8.27;4.93;;;6.70;99.90;;;;;;5113918;28;20206;-75
2022/11/26 09:39:32;;;;;;;10.17;5.10;;;6.80;99.90;;;;;;5114208;28;20206;-77
2022/11/26 09:42:05;;;;;;;11.77;5.40;;;6.80;99.90;;;;;;5116591;27;20202;-76
2022/11/26 09:44:59;;;;;;;12.37;5.60;;;6.80;99.90;;;;;;5123619;28;20666;-77
2022/11/26 09:47:31;;;;;;;10.37;5.30;;;6.70;99.90;;;;;;5121083;28;20206;-76
2022/11/26 09:50:07;;;;;;;13.37;5.53;;;6.60;99.90;;;;;;5118420;27;20563;-75
2022/11/26 09:52:41;;;;;;;14.33;5.50;;;6.60;99.90;;;;;;5117631;27;20213;-76
2022/11/26 09:55:17;;;;;;;11.37;5.73;;;6.60;99.90;;;;;;5133540;27;20198;-75
2022/11/26 09:57:53;;;;;;;9.97;5.90;;;6.60;99.90;;;;;;5132111;27;20213;-76
2022/11/26 10:00:27;;;;;;;12.73;6.47;;;6.70;99.90;;;;;;5132610;27;20185;-76
2022/11/26 10:02:57;;;;;;;10.80;5.87;;;6.70;99.90;;;;;;5144532;27;20193;-78
2022/11/26 10:05:39;;;;;;;9.37;5.70;;;6.60;99.90;;;;;;5112563;28;20322;-79
2022/11/26 10:08:35;;;;;;;14.37;6.87;;;6.70;99.90;;;;;;5117042;27;20241;-79
2022/11/26 10:11:13;;;;;;;10.00;5.60;;;6.80;99.90;;;;;;5098283;27;21107;-78
2022/11/26 10:13:48;;;;;;;14.47;6.10;;;6.90;99.90;;;;;;5115682;27;20205;-78
2022/11/26 10:16:26;;;;;;;13.73;7.50;;;6.90;99.90;;;;;;5118812;27;20215;-76
2022/11/26 10:19:02;;;;;;;9.50;4.90;;;7.10;99.90;;;;;;5122263;27;20206;-77
2022/11/26 10:21:36;;;;;;;11.80;5.07;;;7.20;99.90;;;;;;5131006;27;20209;-76
2022/11/26 10:24:29;;;;;;;10.67;6.00;;;7.40;99.90;;;;;;5114832;27;20217;-78
2022/11/26 10:26:59;;;;;;;14.87;5.83;;;7.80;99.90;;;;;;5113586;28;20186;-78
2022/11/26 10:29:34;;;;;;;8.80;4.30;;;8.50;99.90;;;;;;5112746;28;20234;-76
2022/11/26 10:32:12;;;;;;;8.77;3.83;;;9.30;99.90;;;;;;5113425;28;20208;-75
2022/11/26 10:34:52;;;;;;;10.10;4.43;;;9.40;99.90;;;;;;5125890;27;20213;-77
2022/11/26 10:37:23;;;;;;;7.83;4.03;;;9.40;99.90;;;;;;5113642;27;20224;-78
2022/11/26 10:39:56;;;;;;;8.53;4.10;;;9.00;99.90;;;;;;5135239;27;20713;-76
2022/11/26 10:42:41;;;;;;;11.23;5.63;;;8.80;99.90;;;;;;5134090;27;20190;-76
2022/11/26 10:45:19;;;;;;;12.33;6.07;;;8.60;99.90;;;;;;5113716;28;20271;-76
2022/11/26 10:47:47;;;;;;;13.17;6.77;;;8.40;99.90;;;;;;5112646;28;20205;-80
2022/11/26 10:50:22;;;;;;;9.03;5.37;;;8.10;99.90;;;;;;5113630;28;20267;-79
2022/11/26 10:53:21;;;;;;;10.70;5.37;;;7.80;99.90;;;;;;5117869;27;20221;-77
2022/11/26 10:55:50;;;;;;;11.10;6.13;;;7.60;99.90;;;;;;5113353;28;20200;-77
2022/11/26 10:58:22;;;;;;;11.77;5.27;;;7.60;99.90;;;;;;5114119;28;20232;-77
2022/11/26 11:00:59;;;;;;;10.73;4.47;;;7.70;99.90;;;;;;5122282;27;20198;-78
2022/11/26 11:03:31;;;;;;;9.70;4.50;;;8.00;99.90;;;;;;5125296;27;20194;-74
2022/11/26 11:06:35;;;;;;;9.43;4.60;;;8.20;99.90;;;;;;5115979;27;20238;-78
2022/11/26 11:09:32;;;;;;;9.60;4.60;;;8.30;99.90;;;;;;5125796;27;20197;-78
2022/11/26 11:12:20;;;;;;;11.10;4.90;;;8.30;99.90;;;;;;5132989;28;20198;-77
2022/11/26 11:14:50;;;;;;;8.37;4.50;;;8.10;99.90;;;;;;5126232;28;20647;-75
2022/11/26 11:17:32;;;;;;;13.37;4.80;;;8.00;99.90;;;;;;5135819;28;20504;-78
2022/11/26 11:20:20;;;;;;;13.73;5.00;;;7.80;99.90;;;;;;5128064;28;20202;-77
2022/11/26 11:22:58;;;;;;;9.10;4.37;;;8.00;99.90;;;;;;5126772;28;20201;-80
2022/11/26 11:25:30;;;;;;;9.10;3.87;;;8.30;99.90;;;;;;5130275;28;20212;-75
2022/11/26 11:28:05;;;;;;;8.43;3.90;;;8.50;99.90;;;;;;5127827;28;20229;-73
2022/11/26 11:30:41;;;;;;;10.70;4.03;;;8.70;99.90;;;;;;5133370;28;20312;-74
2022/11/26 11:33:12;;;;;;;8.23;3.40;;;8.90;99.90;;;;;;5132895;28;20219;-76
2022/11/26 11:35:41;;;;;;;8.37;3.40;;;9.00;99.90;;;;;;5120140;28;20194;-77
2022/11/26 11:38:22;;;;;;;6.23;3.40;;;9.10;99.90;;;;;;5130037;28;20193;-75
2022/11/26 11:40:52;;;;;;;8.50;3.13;;;9.20;99.90;;;;;;5120586;28;20205;-75
2022/11/26 11:43:22;;;;;;;8.67;3.40;;;9.20;99.90;;;;;;5116908;28;20204;-75
2022/11/26 11:46:02;;;;;;;8.83;3.40;;;9.40;99.90;;;;;;5131565;28;20552;-74
2022/11/26 11:48:38;;;;;;;7.67;3.40;;;9.20;99.90;;;;;;5112826;28;20214;-75
2022/11/26 11:51:17;;;;;;;10.67;3.57;;;8.90;99.90;;;;;;5112658;28;20214;-74
2022/11/26 11:53:59;;;;;;;9.90;3.67;;;8.70;99.90;;;;;;5111708;28;20228;-75
2022/11/26 11:56:34;;;;;;;9.03;3.50;;;8.60;99.90;;;;;;5113067;28;20301;-76
2022/11/26 11:59:35;;;;;;;7.20;3.67;;;8.50;99.90;;;;;;5111598;28;20229;-76
2022/11/26 12:02:30;;;;;;;8.30;3.60;;;8.20;99.90;;;;;;5093784;28;20229;-74
2022/11/26 12:05:15;;;;;;;9.33;3.90;;;8.20;99.90;;;;;;5136146;27;20209;-74
2022/11/26 12:07:53;;;;;;;7.63;3.70;;;8.20;99.90;;;;;;5112338;28;20202;-75
2022/11/26 12:10:27;;;;;;;8.80;3.40;;;8.10;99.90;;;;;;5113205;28;20217;-74
2022/11/26 12:13:07;;;;;;;9.60;3.70;;;8.10;99.90;;;;;;5111876;28;20238;-76
2022/11/26 12:15:41;;;;;;;6.87;3.03;;;8.30;99.90;;;;;;5112259;28;20595;-74
2022/11/26 12:18:20;;;;;;;8.30;3.20;;;8.20;99.90;;;;;;5130747;27;20244;-74
2022/11/26 12:20:53;;;;;;;7.40;3.50;;;8.10;99.90;;;;;;5125559;27;20656;-73
2022/11/26 12:23:28;;;;;;;7.97;3.30;;;8.20;99.90;;;;;;5115371;27;20208;-79
2022/11/26 12:26:05;;;;;;;8.90;3.63;;;7.90;99.90;;;;;;5115954;28;20201;-75
2022/11/26 12:28:40;;;;;;;7.43;3.73;;;7.80;99.90;;;;;;5115639;28;20234;-73
2022/11/26 12:31:15;;;;;;;7.70;3.70;;;7.70;99.90;;;;;;5135874;27;20216;-76
2022/11/26 12:33:47;;;;;;;8.00;4.03;;;7.50;99.90;;;;;;5144465;27;20200;-74
2022/11/26 12:36:22;;;;;;;7.33;3.97;;;7.50;99.90;;;;;;5140850;27;20206;-75
2022/11/26 12:38:54;;;;;;;6.70;4.27;;;7.40;99.90;;;;;;5123823;27;20213;-76
2022/11/26 12:41:27;;;;;;;8.60;4.37;;;7.40;99.90;;;;;;5116978;27;20198;-79
2022/11/26 12:44:04;;;;;;;16.90;5.87;;;7.30;99.90;;;;;;5115847;28;20707;-76
2022/11/26 12:46:38;;;;;;;15.00;6.80;;;7.40;99.90;;;;;;5126051;27;20287;-76
2022/11/26 12:49:16;;;;;;;13.40;6.77;;;7.40;99.90;;;;;;5135395;27;20306;-75
2022/11/26 12:51:50;;;;;;;13.07;6.40;;;7.40;99.90;;;;;;5122495;27;20665;-75
2022/11/26 12:54:24;;;;;;;8.87;4.70;;;7.30;99.90;;;;;;5125674;27;20214;-79
2022/11/26 12:57:00;;;;;;;9.20;4.43;;;7.30;99.90;;;;;;5114541;28;20231;-74
2022/11/26 12:59:35;;;;;;;8.10;4.83;;;7.20;99.90;;;;;;5118798;27;20202;-78
2022/11/26 13:02:18;;;;;;;16.47;5.90;;;7.20;99.90;;;;;;5117126;27;20196;-75
2022/11/26 13:04:46;;;;;;;12.40;5.73;;;7.20;99.90;;;;;;5138527;27;20221;-77
2022/11/26 13:07:29;;;;;;;10.53;5.10;;;7.20;99.90;;;;;;5139623;27;20209;-77
2022/11/26 13:10:08;;;;;;;12.53;5.40;;;7.10;99.90;;;;;;5133089;27;20202;-76
2022/11/26 13:12:48;;;;;;;12.33;5.97;;;7.10;99.90;;;;;;5116808;27;20236;-76